Time;durP1;ratioP1;P1;durP2;ratioP2;P2;SDS_P1;SDS_P2;PMS_P1;PMS_P2;Temp;Humidity;BMP_temperature;BMP_pressure;BME280_temperature;BME280_humidity;BME280_pressure;Samples;Min_cycle;Max_cycle;Signal;HPM_P1;HPM_P2
2021/08/19 00:00:30;;;;;;;24.05;21.98;;;21.70;73.40;;;;;;5056729;28;20053;-36
2021/08/19 00:02:56;;;;;;;17.02;15.38;;;21.70;73.60;;;;;;5056500;28;20079;-36
2021/08/19 00:05:22;;;;;;;24.83;22.88;;;21.70;73.40;;;;;;5056786;28;20025;-36
2021/08/19 00:07:47;;;;;;;19.80;18.20;;;21.60;73.10;;;;;;5056344;28;20029;-37
2021/08/19 00:10:13;;;;;;;20.45;18.63;;;21.70;73.20;;;;;;5056517;28;20090;-36
2021/08/19 00:12:39;;;;;;;18.50;17.13;;;21.60;73.20;;;;;;5056524;28;20056;-36
2021/08/19 00:15:06;;;;;;;18.48;17.17;;;21.60;73.20;;;;;;5056488;28;20078;-37
2021/08/19 00:17:31;;;;;;;22.42;20.58;;;21.70;73.20;;;;;;5055997;28;20036;-36
2021/08/19 00:19:57;;;;;;;20.60;19.00;;;21.70;73.20;;;;;;5056411;28;20397;-37
2021/08/19 00:22:22;;;;;;;17.80;16.33;;;21.70;73.00;;;;;;5056066;28;20029;-36
2021/08/19 00:24:48;;;;;;;23.10;21.20;;;21.70;72.90;;;;;;5056366;28;20028;-36
2021/08/19 00:27:14;;;;;;;14.95;13.77;;;21.70;72.80;;;;;;5056043;28;20037;-36
2021/08/19 00:29:39;;;;;;;20.63;19.15;;;21.70;72.50;;;;;;5056022;28;20118;-36
2021/08/19 00:32:06;;;;;;;18.48;16.88;;;21.70;72.70;;;;;;5056082;28;20037;-36
2021/08/19 00:34:32;;;;;;;24.67;22.73;;;21.70;72.90;;;;;;5056009;28;20018;-36
2021/08/19 00:36:57;;;;;;;22.80;20.80;;;21.60;72.90;;;;;;5056100;28;20040;-36
2021/08/19 00:39:24;;;;;;;16.83;15.60;;;21.60;72.80;;;;;;5056405;28;20033;-37
2021/08/19 00:41:50;;;;;;;17.80;16.20;;;21.60;72.70;;;;;;5055911;28;20033;-37
2021/08/19 00:44:16;;;;;;;25.55;23.65;;;21.60;72.80;;;;;;5056091;28;20029;-37
2021/08/19 00:46:43;;;;;;;21.40;19.73;;;21.60;72.90;;;;;;5056010;28;20459;-36
2021/08/19 00:49:10;;;;;;;22.55;20.73;;;21.50;72.60;;;;;;5055636;28;20060;-37
2021/08/19 00:51:40;;;;;;;20.00;18.40;;;21.50;72.30;;;;;;5055729;28;20044;-36
2021/08/19 00:54:09;;;;;;;20.13;18.17;;;21.50;72.30;;;;;;5055765;28;20360;-36
2021/08/19 00:56:36;;;;;;;13.82;12.73;;;21.50;72.50;;;;;;5055782;28;20112;-36
2021/08/19 00:59:04;;;;;;;20.45;18.95;;;21.50;72.60;;;;;;5056011;28;20413;-36
2021/08/19 01:01:32;;;;;;;17.42;16.10;;;21.40;72.40;;;;;;5055729;28;20429;-36
2021/08/19 01:03:57;;;;;;;21.63;20.08;;;21.40;72.60;;;;;;5055469;28;20021;-36
2021/08/19 01:06:23;;;;;;;19.85;18.45;;;21.40;72.50;;;;;;5055704;28;20044;-36
2021/08/19 01:08:50;;;;;;;21.70;19.83;;;21.30;72.30;;;;;;5055540;28;20294;-37
2021/08/19 01:11:17;;;;;;;19.20;17.60;;;21.30;72.50;;;;;;5056021;28;20472;-36
2021/08/19 01:13:43;;;;;;;20.17;18.77;;;21.30;72.60;;;;;;5055543;28;20068;-36
2021/08/19 01:16:09;;;;;;;15.80;14.45;;;21.30;72.40;;;;;;5055464;28;20045;-37
2021/08/19 01:18:43;;;;;;;20.60;19.10;;;21.20;72.10;;;;;;5055569;28;20029;-36
2021/08/19 01:21:13;;;;;;;29.20;27.08;;;21.30;71.80;;;;;;5056475;28;20447;-36
2021/08/19 01:23:39;;;;;;;19.65;18.17;;;21.20;71.50;;;;;;5059395;28;20032;-36
2021/08/19 01:26:12;;;;;;;25.77;23.98;;;21.20;71.40;;;;;;5059377;28;20426;-36
2021/08/19 01:28:38;;;;;;;17.45;16.05;;;21.10;71.20;;;;;;5059331;28;20120;-37
2021/08/19 01:31:05;;;;;;;13.57;12.35;;;21.10;71.00;;;;;;5059885;28;20053;-36
2021/08/19 01:33:32;;;;;;;19.20;17.55;;;21.00;71.20;;;;;;5059365;28;20440;-36
2021/08/19 01:35:58;;;;;;;19.25;17.85;;;21.00;71.40;;;;;;5059740;28;20040;-36
2021/08/19 01:38:31;;;;;;;16.98;15.57;;;21.00;71.60;;;;;;5059441;28;20341;-36
2021/08/19 01:40:58;;;;;;;22.52;20.55;;;20.90;71.70;;;;;;5059566;28;20036;-36
2021/08/19 01:43:27;;;;;;;23.33;21.75;;;20.90;72.00;;;;;;5059137;28;20032;-36
2021/08/19 01:46:06;;;;;;;22.50;20.90;;;20.90;72.00;;;;;;5059507;28;20035;-37
2021/08/19 01:48:33;;;;;;;16.50;14.90;;;20.90;72.30;;;;;;5059243;28;20317;-36
2021/08/19 01:50:58;;;;;;;20.80;19.10;;;20.90;72.40;;;;;;5059510;28;20025;-36
2021/08/19 01:53:24;;;;;;;19.98;18.17;;;20.90;72.80;;;;;;5058954;28;20112;-37
2021/08/19 01:55:51;;;;;;;24.33;22.52;;;20.90;73.10;;;;;;5058870;28;20029;-37
2021/08/19 01:58:17;;;;;;;23.20;21.35;;;20.90;73.40;;;;;;5059200;28;20021;-36
2021/08/19 02:00:44;;;;;;;18.33;17.02;;;20.80;73.70;;;;;;5059221;28;20111;-36
2021/08/19 02:03:10;;;;;;;20.17;18.58;;;20.80;74.10;;;;;;5058864;28;20065;-36
2021/08/19 02:05:40;;;;;;;23.08;21.05;;;20.80;74.40;;;;;;5059177;28;20064;-36
2021/08/19 02:08:06;;;;;;;19.88;18.27;;;20.70;74.80;;;;;;5059001;28;20025;-36
2021/08/19 02:10:34;;;;;;;25.88;23.88;;;20.70;74.90;;;;;;5058923;28;20029;-36
2021/08/19 02:13:00;;;;;;;19.27;17.80;;;20.70;75.30;;;;;;5058394;28;20025;-36
2021/08/19 02:15:26;;;;;;;21.02;19.30;;;20.60;75.30;;;;;;5058584;28;20048;-36
2021/08/19 02:17:51;;;;;;;20.30;18.70;;;20.70;75.70;;;;;;5058612;28;20025;-36
2021/08/19 02:20:17;;;;;;;21.00;19.20;;;20.70;75.70;;;;;;5058776;28;20036;-36
2021/08/19 02:22:43;;;;;;;19.30;17.60;;;20.60;75.90;;;;;;5058612;28;20029;-36
2021/08/19 02:25:09;;;;;;;19.05;17.60;;;20.70;76.00;;;;;;5058621;28;20424;-36
2021/08/19 02:27:35;;;;;;;17.02;15.57;;;20.70;76.10;;;;;;5058527;28;20351;-36
2021/08/19 02:30:00;;;;;;;18.65;17.15;;;20.70;76.10;;;;;;5058581;28;20029;-36
2021/08/19 02:32:26;;;;;;;19.08;17.48;;;20.70;75.90;;;;;;5057331;28;20029;-37
2021/08/19 02:34:52;;;;;;;16.83;15.23;;;20.80;75.60;;;;;;5058005;28;20079;-36
2021/08/19 02:37:20;;;;;;;12.43;11.43;;;20.80;75.50;;;;;;5058095;28;20397;-37
2021/08/19 02:39:45;;;;;;;21.40;19.90;;;20.80;75.40;;;;;;5058256;28;20512;-36
2021/08/19 02:42:11;;;;;;;19.85;18.27;;;20.90;75.50;;;;;;5057968;28;20069;-37
2021/08/19 02:44:37;;;;;;;16.10;14.82;;;20.90;75.60;;;;;;5058100;28;20064;-36
2021/08/19 02:47:03;;;;;;;20.10;18.40;;;20.90;75.50;;;;;;5057889;28;20041;-36
2021/08/19 02:49:28;;;;;;;18.55;16.88;;;20.90;75.60;;;;;;5056878;28;20100;-36
2021/08/19 02:51:54;;;;;;;22.67;20.92;;;20.90;75.90;;;;;;5058060;28;20078;-36
2021/08/19 02:54:20;;;;;;;18.38;16.85;;;20.90;76.00;;;;;;5058072;28;20029;-36
2021/08/19 02:56:45;;;;;;;23.23;21.52;;;20.90;76.30;;;;;;5057995;28;20032;-36
2021/08/19 02:59:11;;;;;;;23.92;22.05;;;20.90;76.60;;;;;;5057839;28;20078;-36
2021/08/19 03:01:36;;;;;;;18.48;16.85;;;20.80;76.90;;;;;;5057731;28;20041;-36
2021/08/19 03:04:02;;;;;;;22.00;20.10;;;20.80;76.90;;;;;;5057565;28;20325;-36
2021/08/19 03:06:28;;;;;;;24.02;20.17;;;20.80;77.20;;;;;;5057615;28;20025;-36
2021/08/19 03:08:53;;;;;;;20.85;18.92;;;20.80;77.70;;;;;;5057388;28;20111;-37
2021/08/19 03:11:19;;;;;;;22.55;20.75;;;20.70;78.00;;;;;;5057456;28;20025;-37
2021/08/19 03:13:45;;;;;;;22.38;20.42;;;20.70;78.20;;;;;;5057560;28;20079;-36
2021/08/19 03:16:10;;;;;;;15.80;14.57;;;20.60;78.40;;;;;;5057523;28;20041;-36
2021/08/19 03:18:36;;;;;;;24.05;21.92;;;20.60;78.30;;;;;;5057038;28;20487;-37
2021/08/19 03:21:04;;;;;;;17.80;16.20;;;20.50;78.40;;;;;;5057707;28;20033;-36
2021/08/19 03:23:30;;;;;;;22.08;20.25;;;20.50;78.70;;;;;;5057178;28;20037;-36
2021/08/19 03:25:56;;;;;;;20.65;18.95;;;20.40;79.00;;;;;;5057755;28;20398;-36
2021/08/19 03:28:23;;;;;;;24.58;22.60;;;20.40;79.20;;;;;;5056909;28;20040;-36
2021/08/19 03:30:54;;;;;;;23.00;20.90;;;20.30;79.30;;;;;;5057560;28;20037;-36
2021/08/19 03:33:21;;;;;;;30.95;28.58;;;20.30;79.60;;;;;;5056951;28;20058;-36
2021/08/19 03:35:46;;;;;;;21.25;19.45;;;20.20;79.50;;;;;;5057345;28;20045;-36
2021/08/19 03:38:12;;;;;;;25.70;23.60;;;20.20;79.50;;;;;;5056858;28;20071;-36
2021/08/19 03:40:39;;;;;;;23.80;21.55;;;20.20;79.90;;;;;;5057034;28;20107;-35
2021/08/19 03:43:04;;;;;;;22.58;20.85;;;20.20;80.50;;;;;;5057043;28;20376;-36
2021/08/19 03:45:30;;;;;;;16.23;14.82;;;20.20;80.10;;;;;;5056632;28;20016;-36
2021/08/19 03:47:56;;;;;;;27.08;24.88;;;20.10;80.20;;;;;;5056869;28;20033;-36
2021/08/19 03:50:22;;;;;;;16.42;14.90;;;20.10;80.00;;;;;;5056900;28;20025;-35
2021/08/19 03:52:47;;;;;;;25.45;23.48;;;20.10;80.10;;;;;;5056450;28;20589;-36
2021/08/19 03:55:13;;;;;;;21.35;19.58;;;20.10;79.80;;;;;;5056579;28;20037;-36
2021/08/19 03:57:39;;;;;;;14.65;13.45;;;20.00;79.80;;;;;;5056496;28;20025;-36
2021/08/19 04:00:06;;;;;;;19.77;18.25;;;20.00;79.80;;;;;;5056867;28;20032;-36
2021/08/19 04:02:32;;;;;;;20.50;18.65;;;20.00;80.10;;;;;;5056029;28;20036;-37
2021/08/19 04:04:57;;;;;;;16.58;15.00;;;20.00;79.80;;;;;;5056402;28;20037;-36
2021/08/19 04:07:23;;;;;;;18.80;17.27;;;19.90;80.00;;;;;;5056235;28;20043;-37
2021/08/19 04:09:48;;;;;;;22.77;20.88;;;19.90;80.10;;;;;;5056349;28;20108;-36
2021/08/19 04:12:14;;;;;;;19.05;17.55;;;19.90;80.00;;;;;;5056160;28;20310;-36
2021/08/19 04:14:40;;;;;;;20.33;18.63;;;19.90;80.30;;;;;;5056007;28;20317;-36
2021/08/19 04:17:06;;;;;;;22.30;20.50;;;19.90;79.90;;;;;;5055919;28;20061;-36
2021/08/19 04:19:32;;;;;;;17.63;16.33;;;19.90;79.70;;;;;;5056196;28;20036;-37
2021/08/19 04:21:57;;;;;;;14.55;13.35;;;19.90;80.00;;;;;;5055945;28;20025;-36
2021/08/19 04:24:23;;;;;;;14.80;13.38;;;19.90;79.70;;;;;;5055975;28;20063;-36
2021/08/19 04:26:48;;;;;;;21.25;19.45;;;19.90;79.60;;;;;;5055710;28;20063;-36
2021/08/19 04:29:14;;;;;;;18.48;17.02;;;19.90;79.20;;;;;;5055764;28;20094;-37
2021/08/19 04:31:40;;;;;;;14.80;13.57;;;19.80;79.10;;;;;;5055465;28;20440;-36
2021/08/19 04:34:05;;;;;;;18.15;16.55;;;19.80;79.10;;;;;;5055379;28;20025;-36
2021/08/19 04:36:32;;;;;;;16.20;14.98;;;19.80;79.20;;;;;;5055516;28;20025;-36
2021/08/19 04:38:57;;;;;;;18.92;17.33;;;19.80;79.20;;;;;;5055453;28;20056;-36
2021/08/19 04:41:23;;;;;;;16.23;14.93;;;19.80;79.50;;;;;;5055464;28;20123;-36
2021/08/19 04:43:49;;;;;;;18.42;16.95;;;19.80;79.40;;;;;;5055474;28;20064;-36
2021/08/19 04:46:14;;;;;;;20.63;18.98;;;19.80;79.70;;;;;;5055945;28;20036;-36
2021/08/19 04:48:40;;;;;;;18.13;16.67;;;19.80;79.80;;;;;;5055686;28;20039;-36
2021/08/19 04:51:06;;;;;;;14.40;13.15;;;19.80;79.60;;;;;;5056158;28;20064;-36
2021/08/19 04:53:32;;;;;;;12.80;11.68;;;19.80;79.30;;;;;;5055293;28;20055;-36
2021/08/19 04:55:57;;;;;;;16.40;15.10;;;19.80;78.90;;;;;;5055129;28;20029;-36
2021/08/19 04:58:24;;;;;;;17.88;16.48;;;19.80;79.70;;;;;;5055279;28;20039;-36
2021/08/19 05:00:50;;;;;;;19.77;18.48;;;19.80;79.30;;;;;;5055895;28;20052;-36
2021/08/19 05:03:16;;;;;;;16.05;14.82;;;19.80;78.90;;;;;;5055262;28;20398;-36
2021/08/19 05:05:42;;;;;;;14.30;13.20;;;19.90;78.80;;;;;;5055538;28;20417;-36
2021/08/19 05:08:07;;;;;;;14.90;13.70;;;19.90;78.50;;;;;;5055278;28;20029;-37
2021/08/19 05:10:33;;;;;;;14.07;12.90;;;19.90;78.50;;;;;;5055611;28;20033;-36
2021/08/19 05:12:58;;;;;;;14.48;13.30;;;19.90;78.00;;;;;;5055164;28;20021;-36
2021/08/19 05:15:24;;;;;;;18.27;16.98;;;19.90;78.20;;;;;;5055405;28;20040;-37
2021/08/19 05:17:50;;;;;;;15.00;13.90;;;19.90;78.40;;;;;;5055390;28;20029;-36
2021/08/19 05:20:16;;;;;;;12.40;11.40;;;20.00;78.20;;;;;;5055053;28;20441;-36
2021/08/19 05:22:42;;;;;;;16.05;14.77;;;20.10;78.20;;;;;;5055285;28;20025;-36
2021/08/19 05:25:08;;;;;;;15.65;14.25;;;20.10;77.70;;;;;;5055538;28;20036;-36
2021/08/19 05:27:34;;;;;;;11.60;10.55;;;20.20;77.60;;;;;;5055013;28;20036;-36
2021/08/19 05:29:59;;;;;;;14.65;13.20;;;20.20;77.30;;;;;;5055322;28;20309;-37
2021/08/19 05:32:25;;;;;;;17.83;16.52;;;20.20;77.10;;;;;;5055350;28;20159;-36
2021/08/19 05:34:51;;;;;;;15.20;14.00;;;20.20;77.00;;;;;;5055242;28;20053;-37
2021/08/19 05:37:16;;;;;;;13.00;11.77;;;20.20;77.20;;;;;;5055269;28;20025;-36
2021/08/19 05:39:42;;;;;;;12.88;11.77;;;20.20;76.80;;;;;;5055327;28;20317;-36
2021/08/19 05:42:08;;;;;;;14.15;13.00;;;20.20;76.60;;;;;;5054935;28;20039;-36
2021/08/19 05:44:33;;;;;;;16.10;14.90;;;20.20;76.40;;;;;;5055114;28;20108;-36
2021/08/19 05:46:59;;;;;;;15.30;13.88;;;20.20;76.30;;;;;;5054793;28;20031;-36
2021/08/19 05:49:24;;;;;;;14.27;12.98;;;20.10;75.90;;;;;;5054857;28;20040;-36
2021/08/19 05:51:50;;;;;;;16.13;14.77;;;20.10;75.70;;;;;;5054609;28;20079;-36
2021/08/19 05:54:16;;;;;;;17.20;15.73;;;20.10;76.00;;;;;;5054616;28;20036;-36
2021/08/19 05:56:42;;;;;;;14.70;13.27;;;20.10;75.80;;;;;;5053433;28;20316;-36
2021/08/19 05:59:07;;;;;;;12.88;11.77;;;20.10;75.80;;;;;;5055178;28;20048;-36
2021/08/19 06:01:33;;;;;;;13.38;12.27;;;20.10;75.50;;;;;;5054709;28;20495;-36
2021/08/19 06:03:59;;;;;;;16.73;15.25;;;20.10;75.30;;;;;;5054266;28;20037;-37
2021/08/19 06:06:24;;;;;;;17.63;16.13;;;20.20;75.70;;;;;;5054612;28;20097;-36
2021/08/19 06:08:50;;;;;;;14.63;13.43;;;20.20;76.00;;;;;;5057521;28;20116;-36
2021/08/19 06:11:16;;;;;;;12.68;11.40;;;20.20;75.60;;;;;;5058873;28;20377;-36
2021/08/19 06:13:41;;;;;;;13.00;11.80;;;20.20;75.80;;;;;;5058116;28;20025;-36
2021/08/19 06:16:07;;;;;;;12.45;11.35;;;20.30;76.20;;;;;;5058321;28;20045;-36
2021/08/19 06:18:33;;;;;;;12.52;11.32;;;20.40;75.70;;;;;;5057958;28;20032;-36
2021/08/19 06:20:58;;;;;;;13.82;12.43;;;20.60;74.90;;;;;;5058777;28;20036;-36
2021/08/19 06:23:24;;;;;;;12.85;11.50;;;20.80;74.40;;;;;;5058288;28;20466;-35
2021/08/19 06:25:50;;;;;;;11.18;9.48;;;20.80;73.30;;;;;;5056817;28;20440;-36
2021/08/19 06:28:16;;;;;;;12.10;11.00;;;20.90;73.50;;;;;;5057887;28;20033;-38
2021/08/19 06:30:41;;;;;;;13.23;11.93;;;21.00;72.80;;;;;;5058271;28;20384;-37
2021/08/19 06:33:09;;;;;;;15.55;13.65;;;21.10;72.90;;;;;;5057664;28;20049;-37
2021/08/19 06:35:35;;;;;;;13.23;11.93;;;21.30;72.40;;;;;;5057535;28;20149;-37
2021/08/19 06:38:01;;;;;;;12.55;11.40;;;21.30;71.10;;;;;;5057719;28;20029;-37
2021/08/19 06:40:26;;;;;;;12.48;10.27;;;21.40;71.70;;;;;;5058024;28;20257;-36
2021/08/19 06:42:52;;;;;;;10.95;9.95;;;21.40;70.70;;;;;;5057667;28;20108;-37
2021/08/19 06:45:18;;;;;;;12.13;11.15;;;21.50;70.10;;;;;;5053675;28;20025;-36
2021/08/19 06:47:44;;;;;;;12.25;10.57;;;21.50;69.90;;;;;;5057163;28;20033;-36
2021/08/19 06:50:10;;;;;;;11.20;10.10;;;21.60;69.60;;;;;;5057438;28;20064;-36
2021/08/19 06:52:40;;;;;;;14.88;13.27;;;21.60;68.80;;;;;;5056245;28;20029;-35
2021/08/19 06:55:09;;;;;;;12.07;10.88;;;21.70;68.90;;;;;;5057513;28;20059;-36
2021/08/19 06:57:35;;;;;;;12.20;10.70;;;21.60;68.50;;;;;;5057317;28;20111;-36
2021/08/19 07:00:01;;;;;;;10.93;9.93;;;21.60;67.80;;;;;;5057227;28;20126;-36
2021/08/19 07:02:27;;;;;;;10.50;9.50;;;21.60;67.70;;;;;;5057005;28;20040;-37
2021/08/19 07:04:52;;;;;;;13.00;9.77;;;21.50;67.70;;;;;;5056975;28;20111;-37
2021/08/19 07:07:18;;;;;;;14.13;12.73;;;21.40;67.80;;;;;;5056760;28;20028;-37
2021/08/19 07:09:44;;;;;;;12.38;10.73;;;21.30;68.10;;;;;;5056971;28;20025;-37
2021/08/19 07:12:10;;;;;;;14.57;13.10;;;21.20;68.60;;;;;;5057153;28;20187;-37
2021/08/19 07:14:35;;;;;;;12.85;11.65;;;21.20;68.70;;;;;;5056755;28;20037;-37
2021/08/19 07:17:01;;;;;;;12.82;11.32;;;21.10;68.80;;;;;;5056597;28;20127;-37
2021/08/19 07:19:26;;;;;;;15.55;14.05;;;21.00;69.20;;;;;;5055849;28;20397;-37
2021/08/19 07:21:53;;;;;;;13.52;10.60;;;20.90;69.00;;;;;;5056334;28;20064;-36
2021/08/19 07:24:18;;;;;;;13.35;12.05;;;20.80;69.30;;;;;;5056986;28;20306;-36
2021/08/19 07:26:44;;;;;;;11.23;9.57;;;20.70;69.60;;;;;;5056771;28;20063;-37
2021/08/19 07:29:10;;;;;;;14.00;12.75;;;20.70;70.00;;;;;;5056645;28;20025;-36
2021/08/19 07:31:38;;;;;;;10.43;9.38;;;20.60;70.00;;;;;;5056762;28;20040;-37
2021/08/19 07:34:05;;;;;;;11.02;10.10;;;20.50;69.90;;;;;;5056883;28;20029;-36
2021/08/19 07:36:30;;;;;;;9.95;8.98;;;20.50;70.00;;;;;;5056851;28;20033;-37
2021/08/19 07:38:59;;;;;;;11.25;10.07;;;20.40;69.90;;;;;;5056310;28;20025;-37
2021/08/19 07:41:25;;;;;;;11.35;10.25;;;20.40;70.30;;;;;;5056855;28;20083;-36
2021/08/19 07:43:51;;;;;;;10.35;9.45;;;20.40;70.20;;;;;;5056505;28;20025;-36
2021/08/19 07:46:16;;;;;;;9.35;8.45;;;20.40;70.40;;;;;;5056948;28;20044;-37
2021/08/19 07:48:44;;;;;;;11.95;9.98;;;20.40;70.50;;;;;;5056893;28;20036;-36
2021/08/19 07:51:10;;;;;;;10.25;8.73;;;20.30;70.50;;;;;;5056200;28;20033;-37
2021/08/19 07:53:35;;;;;;;10.30;9.40;;;20.40;70.80;;;;;;5055760;28;20082;-36
2021/08/19 07:56:01;;;;;;;12.18;11.13;;;20.40;70.90;;;;;;5056779;28;20036;-37
2021/08/19 07:58:27;;;;;;;13.35;12.07;;;20.40;70.80;;;;;;5056035;28;20025;-37
2021/08/19 08:00:52;;;;;;;13.32;11.98;;;20.30;70.70;;;;;;5056710;28;20079;-36
2021/08/19 08:03:18;;;;;;;10.60;9.60;;;20.30;70.60;;;;;;5056372;28;20375;-37
2021/08/19 08:05:44;;;;;;;12.27;10.57;;;20.30;70.60;;;;;;5056285;28;20056;-36
2021/08/19 08:08:11;;;;;;;10.88;9.93;;;20.30;70.60;;;;;;5056083;28;20033;-37
2021/08/19 08:10:38;;;;;;;10.38;9.13;;;20.30;70.90;;;;;;5055760;28;20432;-36
2021/08/19 08:13:06;;;;;;;9.25;7.95;;;20.30;71.00;;;;;;5056067;28;20372;-37
2021/08/19 08:15:32;;;;;;;8.93;7.35;;;20.30;71.10;;;;;;5055909;28;20067;-37
2021/08/19 08:17:58;;;;;;;9.90;8.90;;;20.30;71.10;;;;;;5055688;28;20447;-36
2021/08/19 08:20:24;;;;;;;12.57;11.35;;;20.30;71.00;;;;;;5056008;28;20064;-36
2021/08/19 08:22:51;;;;;;;9.05;8.23;;;20.30;70.70;;;;;;5054770;28;20344;-37
2021/08/19 08:25:17;;;;;;;12.30;11.18;;;20.30;71.30;;;;;;5056031;28;20112;-36
2021/08/19 08:28:05;;;;;;;11.20;10.20;;;20.30;71.80;;;;;;5055440;28;20040;-36
2021/08/19 08:30:37;;;;;;;11.30;10.32;;;20.40;71.90;;;;;;5055815;28;20037;-36
2021/08/19 08:33:03;;;;;;;13.93;12.63;;;20.40;71.60;;;;;;5055818;28;20029;-36
2021/08/19 08:35:35;;;;;;;9.00;7.65;;;20.40;71.50;;;;;;5056078;28;20428;-36
2021/08/19 08:38:06;;;;;;;10.18;9.25;;;20.40;71.60;;;;;;5055965;28;20033;-37
2021/08/19 08:40:37;;;;;;;11.27;10.38;;;20.50;71.80;;;;;;5055999;28;20313;-36
2021/08/19 08:43:04;;;;;;;11.98;10.82;;;20.50;71.50;;;;;;5055822;28;20036;-36
2021/08/19 08:45:34;;;;;;;7.28;6.57;;;20.50;71.50;;;;;;5055861;28;20032;-36
2021/08/19 08:48:04;;;;;;;11.75;10.80;;;20.50;71.50;;;;;;5055779;28;20041;-36
2021/08/19 08:50:30;;;;;;;11.82;10.43;;;20.60;71.70;;;;;;5055662;28;20056;-37
2021/08/19 08:52:56;;;;;;;10.18;9.02;;;20.60;71.60;;;;;;5055166;28;20483;-37
2021/08/19 08:55:22;;;;;;;10.23;9.25;;;20.60;71.40;;;;;;5055121;28;20064;-36
2021/08/19 08:57:49;;;;;;;8.10;6.72;;;20.50;71.30;;;;;;5055158;28;20106;-36
2021/08/19 09:00:16;;;;;;;12.07;10.93;;;20.50;71.50;;;;;;5055706;28;20110;-36
2021/08/19 09:02:43;;;;;;;10.68;9.68;;;20.50;72.00;;;;;;5055012;28;20060;-36
2021/08/19 09:05:20;;;;;;;10.75;9.75;;;20.50;72.40;;;;;;5055192;28;20032;-36
2021/08/19 09:07:57;;;;;;;11.43;10.32;;;20.50;72.70;;;;;;5055053;28;20167;-37
2021/08/19 09:10:26;;;;;;;9.32;8.40;;;20.50;72.20;;;;;;5055559;28;20044;-36
2021/08/19 09:12:52;;;;;;;10.48;9.40;;;20.50;72.50;;;;;;5054942;28;20036;-37
2021/08/19 09:15:20;;;;;;;12.77;11.00;;;20.40;72.80;;;;;;5055035;28;20040;-37
2021/08/19 09:17:52;;;;;;;9.48;8.57;;;20.40;73.30;;;;;;5055033;28;20040;-36
2021/08/19 09:20:20;;;;;;;10.57;9.63;;;20.40;73.60;;;;;;5055065;28;20029;-36
2021/08/19 09:22:55;;;;;;;12.20;11.02;;;20.40;73.80;;;;;;5054936;28;20044;-36
2021/08/19 09:25:30;;;;;;;9.35;8.45;;;20.30;74.40;;;;;;5054971;28;20071;-36
2021/08/19 09:28:35;;;;;;;12.73;11.40;;;20.30;75.00;;;;;;5055284;28;20033;-37
2021/08/19 09:31:07;;;;;;;13.52;12.27;;;20.30;75.30;;;;;;5055362;28;20302;-36
2021/08/19 09:33:42;;;;;;;11.80;10.77;;;20.30;75.20;;;;;;5055698;28;20041;-36
2021/08/19 09:36:08;;;;;;;13.15;12.05;;;20.20;75.40;;;;;;5055743;28;20032;-36
2021/08/19 09:38:38;;;;;;;16.58;15.02;;;20.20;75.80;;;;;;5055018;28;20187;-36
2021/08/19 09:41:08;;;;;;;15.03;13.77;;;20.10;76.40;;;;;;5055348;28;20030;-36
2021/08/19 09:43:39;;;;;;;13.40;11.70;;;20.10;77.00;;;;;;5056454;28;20298;-36
2021/08/19 09:46:05;;;;;;;13.65;12.30;;;20.10;76.80;;;;;;5059232;28;20037;-36
2021/08/19 09:48:31;;;;;;;13.88;12.68;;;20.10;77.30;;;;;;5054715;28;20037;-36
2021/08/19 09:51:17;;;;;;;15.30;13.75;;;20.10;77.40;;;;;;5054485;28;20098;-36
2021/08/19 09:53:51;;;;;;;14.25;11.43;;;20.10;77.40;;;;;;5058401;28;20090;-36
2021/08/19 09:56:32;;;;;;;10.70;9.70;;;20.20;77.80;;;;;;5058700;28;20025;-36
2021/08/19 09:59:18;;;;;;;14.80;13.32;;;20.30;77.90;;;;;;5057911;28;20128;-36
2021/08/19 10:01:44;;;;;;;12.85;11.73;;;20.40;77.00;;;;;;5058121;28;20040;-36
2021/08/19 10:04:10;;;;;;;9.63;8.80;;;20.50;76.70;;;;;;5058256;28;20132;-36
2021/08/19 10:06:36;;;;;;;11.93;10.82;;;20.70;76.60;;;;;;5058260;28;20144;-36
2021/08/19 10:09:01;;;;;;;15.55;14.02;;;20.80;76.70;;;;;;5057794;28;20025;-36
2021/08/19 10:11:28;;;;;;;9.95;9.07;;;20.90;76.10;;;;;;5058082;28;20029;-36
2021/08/19 10:13:54;;;;;;;13.73;12.32;;;21.00;75.80;;;;;;5057487;28;20037;-36
2021/08/19 10:16:21;;;;;;;12.27;11.18;;;21.10;75.30;;;;;;5057587;28;20069;-36
2021/08/19 10:18:50;;;;;;;13.15;11.93;;;21.10;74.90;;;;;;5057761;28;20420;-36
2021/08/19 10:21:17;;;;;;;15.07;13.77;;;21.10;74.40;;;;;;5058057;28;20033;-36
2021/08/19 10:23:46;;;;;;;10.27;9.40;;;21.10;74.50;;;;;;5057899;28;20032;-36
2021/08/19 10:26:17;;;;;;;12.48;11.38;;;21.00;74.70;;;;;;5057872;28;20033;-36
2021/08/19 10:28:48;;;;;;;12.95;11.70;;;21.00;74.60;;;;;;5057272;28;20029;-36
2021/08/19 10:31:43;;;;;;;12.32;11.40;;;21.00;74.80;;;;;;5056753;28;20053;-36
2021/08/19 10:34:13;;;;;;;12.35;11.20;;;21.00;74.50;;;;;;5057035;28;20060;-36
2021/08/19 10:36:41;;;;;;;9.38;8.50;;;21.00;74.70;;;;;;5057885;28;20298;-36
2021/08/19 10:39:19;;;;;;;9.35;8.43;;;21.00;74.40;;;;;;5057766;28;20059;-36
2021/08/19 10:41:55;;;;;;;13.18;12.18;;;21.00;75.70;;;;;;5057385;28;20044;-36
2021/08/19 10:44:34;;;;;;;13.50;12.38;;;21.00;75.00;;;;;;5058229;28;20057;-36
2021/08/19 10:47:00;;;;;;;13.05;12.10;;;21.00;74.50;;;;;;5057676;28;20354;-36
2021/08/19 10:49:29;;;;;;;11.48;10.27;;;20.90;74.00;;;;;;5057740;28;20086;-36
2021/08/19 10:51:55;;;;;;;10.48;8.65;;;21.00;74.70;;;;;;5057433;28;20021;-36
2021/08/19 10:54:35;;;;;;;11.02;10.13;;;20.90;74.90;;;;;;5056279;28;20049;-36
2021/08/19 10:57:32;;;;;;;11.18;10.30;;;20.90;74.10;;;;;;5057089;28;20099;-36
2021/08/19 11:00:05;;;;;;;13.35;11.20;;;20.90;75.10;;;;;;5057020;28;20059;-36
2021/08/19 11:02:48;;;;;;;11.55;10.50;;;20.90;75.50;;;;;;5057353;28;20057;-36
2021/08/19 11:05:26;;;;;;;13.15;11.77;;;20.90;75.40;;;;;;5057757;28;20376;-36
2021/08/19 11:07:56;;;;;;;13.02;11.93;;;20.80;75.10;;;;;;5054452;28;20025;-36
2021/08/19 11:10:28;;;;;;;12.75;11.63;;;20.90;75.80;;;;;;5057605;28;20156;-36
2021/08/19 11:13:15;;;;;;;11.52;10.48;;;20.90;75.60;;;;;;5056926;28;20025;-36
2021/08/19 11:15:46;;;;;;;14.15;12.95;;;21.10;74.70;;;;;;5056832;28;20041;-36
2021/08/19 11:18:33;;;;;;;15.88;14.32;;;21.20;74.50;;;;;;5057193;28;20318;-36
2021/08/19 11:20:59;;;;;;;12.52;11.43;;;21.20;74.10;;;;;;5057068;28;20107;-36
2021/08/19 11:23:34;;;;;;;13.57;11.57;;;21.20;74.70;;;;;;5056851;28;20048;-37
2021/08/19 11:26:09;;;;;;;12.43;11.32;;;21.10;74.60;;;;;;5057027;28;20029;-36
2021/08/19 11:28:43;;;;;;;11.88;10.68;;;21.10;74.70;;;;;;5057004;28;20320;-36
2021/08/19 11:31:20;;;;;;;17.02;15.10;;;21.10;75.10;;;;;;5056800;28;20040;-36
2021/08/19 11:34:00;;;;;;;11.98;10.85;;;21.10;75.30;;;;;;5056541;28;20029;-36
2021/08/19 11:36:27;;;;;;;12.55;11.35;;;21.00;75.00;;;;;;5056150;28;20037;-36
2021/08/19 11:39:04;;;;;;;18.98;17.52;;;21.00;75.60;;;;;;5056853;28;20036;-36
2021/08/19 11:41:30;;;;;;;17.63;16.23;;;20.90;75.90;;;;;;5056468;28;20040;-37
2021/08/19 11:44:04;;;;;;;13.77;12.45;;;20.90;76.30;;;;;;5056339;28;20033;-37
2021/08/19 11:46:30;;;;;;;11.15;10.15;;;20.90;76.80;;;;;;5055218;28;20059;-37
2021/08/19 11:49:08;;;;;;;21.38;19.88;;;20.80;76.80;;;;;;5056641;28;20029;-37
2021/08/19 11:51:36;;;;;;;14.80;13.50;;;20.70;76.70;;;;;;5055519;28;20025;-36
2021/08/19 11:54:13;;;;;;;14.73;13.52;;;20.70;76.90;;;;;;5056225;28;20074;-37
2021/08/19 11:56:41;;;;;;;13.52;12.43;;;20.70;77.00;;;;;;5056789;28;20025;-36
2021/08/19 11:59:12;;;;;;;14.40;12.93;;;20.60;76.80;;;;;;5056288;28;20409;-36
2021/08/19 12:01:39;;;;;;;;;;;20.60;77.10;;;;;;5056514;28;20126;-37
2021/08/19 12:04:06;;;;;;;13.75;12.63;;;20.60;76.90;;;;;;5056067;28;19904;-37
2021/08/19 12:06:33;;;;;;;12.63;11.48;;;20.60;77.90;;;;;;5055610;28;20210;-36
2021/08/19 12:09:06;;;;;;;11.90;10.80;;;20.60;77.80;;;;;;5056178;28;20367;-36
2021/08/19 12:11:36;;;;;;;16.27;14.25;;;20.60;77.70;;;;;;5055523;28;20036;-36
2021/08/19 12:14:02;;;;;;;13.48;12.25;;;20.60;78.10;;;;;;5055952;28;20021;-36
2021/08/19 12:16:30;;;;;;;11.85;10.65;;;20.70;78.60;;;;;;5055639;28;20045;-36
2021/08/19 12:19:07;;;;;;;15.45;14.25;;;20.80;79.20;;;;;;5055624;28;20406;-37
2021/08/19 12:21:34;;;;;;;18.40;16.38;;;21.00;79.40;;;;;;5055794;28;20037;-37
2021/08/19 12:24:17;;;;;;;16.13;11.57;;;21.20;79.80;;;;;;5055909;28;20031;-36
2021/08/19 12:27:00;;;;;;;13.55;12.35;;;21.50;79.90;;;;;;5055425;28;20048;-37
2021/08/19 12:29:26;;;;;;;11.95;10.82;;;21.80;77.40;;;;;;5055685;28;20069;-36
2021/08/19 12:31:52;;;;;;;15.32;13.93;;;22.10;77.60;;;;;;5055450;28;20064;-36